Airfield :
LOGIN :

Register | Disclaimer

   EN    FR    IT 

 










Legend :    VFR   Marginal VFR   IFR   Intensive IFR   Very Intensive IFR
Visi :
Ceiling :
>= 8 km
>= 3000ft
5 to 8 km
1000 to 3000 ft
1500m to 5 km
500 to 1000 ft
800 to 1500m
200 to 500 ft
< 800m
< 200 ft
Symbols :   Thunderstorms  Fog  Heavy snow  Heavy precipitations  Wind > 20 kt
SIGMETs :     Misc.  Thunderstorms  Icing  Turbulence  Mountain Waves  Volcanic Ashes






- Airport Elevation : 779 ft
- IATA code : CMF


LFLB - Chambery / Aix-Les-Bains

CURRENT METAR :
  • 041200Z AUTO 34009KT CAVOK 27/20 Q1018 TEMPO VRB15G25KT 4000 TSRA BKN070CB

EXPIRED METARs :
  • 041130Z AUTO 36007KT 320V040 CAVOK 27/19 Q1018 TEMPO VRB15G25KT 4000 TSRA BKN070CB
  • 041100Z AUTO VRB03KT CAVOK 26/19 Q1018 TEMPO VRB15G25KT 4000 TSRA BKN070CB
  • 041030Z AUTO 15009KT 9999 FEW040 SCT120 25/19 Q1019 TEMPO VRB15G25KT 4000 TSRA BKN070CB
  • 041000Z AUTO 17005KT 9999 BKN041/// BKN110/// ///CB 26/18 Q1020 TEMPO VRB15G25KT 4000 TSRA
  • 040930Z AUTO 36003KT 280V040 CAVOK 27/19 Q1019 TEMPO VRB15G25KT 4000 TSRA BKN070CB

TAF TAF LFLB
Valid from the 04 at 09:00 until the 05 at 09:00 UTC


040800Z 0409/0509 33004KT 9999 SCT090
TEMPO 0409/0424 SCT090TCU
PROB40
TEMPO 0409/0424 -SHRA FEW080CB SCT090TCU
PROB30
TEMPO 0409/0424 VRB15G25KT 4000 TSRA BKN070CB
BECMG 0418/0420 VRB02KT



MET'MAP, your aeronautical weather chart ! - Copyright ORBIFLY December 2007 - Disclaimer

ORBIFLY MET'MAP TEAM :

Programming & Development : Alexandra Zaïnal
Original concept : Baudouin d'Aumeries
Technical & hardware support : Manuel Goepfert
Assistance : Marc-Olivier Méhu




SOURCES & CREDITS :

   NOAA